Alberton, Montana
Current Conditions -  °F | °C
As of 5:53 PM on Saturday 22 Nov 2014 (Local Time) from KMSO Reporting Station
Overcast Overcast  
Wind Chill: 35°   Ceiling: 7500
Heat Index: 35°   Visibility: 10mi
Dew Point: 28°   Wind: 3mph
Humidity: 76%   Direction: 330°NNW
Pressure: 29.72"   Gusts: NA
Location:  47°N, 114.47°W
Report Text: KMSO 230053Z 33003KT 10SM FEW049 OVC075 02/M02 A2972 RMK AO2 SLP083 T00171022
Loading
Personal Weather Stations






























Interactive Weather Map New forecast layout! Learn more

10-Day Weather Forecast

Advertisements
Track Severe Weather on mobile